createdAt,value
2023-04-11T00:03:22.449Z,99600.66
2023-04-11T00:08:25.655Z,99623.44
2023-04-11T00:13:29.796Z,99621.34
2023-04-11T00:18:35.944Z,99639.16
2023-04-11T00:23:38.751Z,99628.34
2023-04-11T00:28:42.964Z,99643.88
2023-04-11T00:33:45.820Z,99621.97
2023-04-11T00:38:48.996Z,99621.94
2023-04-11T00:43:54.245Z,99622.41
2023-04-11T00:48:57.489Z,99607.56
2023-04-11T00:54:02.202Z,99619.88
2023-04-11T00:59:07.141Z,99622.59
2023-04-11T01:04:10.543Z,99622.09
2023-04-11T01:09:13.986Z,99619.03
2023-04-11T01:14:20.569Z,99614.75
2023-04-11T01:19:25.898Z,99617.69
2023-04-11T01:24:30.749Z,99634.72
2023-04-11T01:29:33.598Z,99610.97
2023-04-11T01:34:38.738Z,99602.59
2023-04-11T01:39:42.980Z,99600.31
2023-04-11T01:44:45.810Z,99600.56
2023-04-11T01:49:48.678Z,99582.63
2023-04-11T01:54:52.886Z,99568.53
2023-04-11T01:59:55.721Z,99566.44
2023-04-11T02:04:58.906Z,99574.56
2023-04-11T02:10:03.118Z,99579.91
2023-04-11T02:15:06.767Z,99585.16
2023-04-11T02:20:10.979Z,99568.09
2023-04-11T02:25:15.212Z,99587.09
2023-04-11T02:30:18.061Z,99576.69
2023-04-11T02:35:21.075Z,99584.00
2023-04-11T02:40:25.195Z,99560.97
2023-04-11T02:45:28.027Z,99560.03
2023-04-11T02:50:30.892Z,99572.97
2023-04-11T02:55:35.254Z,99577.06
2023-04-11T03:00:39.138Z,99577.19
2023-04-11T03:05:44.707Z,99570.63
2023-04-11T03:10:51.066Z,99572.91
2023-04-11T03:15:54.639Z,99569.38
2023-04-11T03:21:01.573Z,99572.97
2023-04-11T03:26:07.987Z,99572.00
2023-04-11T03:31:11.770Z,99590.63
2023-04-11T03:36:16.744Z,99579.72
2023-04-11T03:41:21.846Z,99592.16
2023-04-11T03:46:26.190Z,99595.34
2023-04-11T03:51:29.471Z,99591.94
2023-04-11T03:56:40.763Z,99605.41
2023-04-11T04:01:50.233Z,99607.03
2023-04-11T04:06:56.762Z,99603.28
2023-04-11T04:12:08.600Z,99613.31
2023-04-11T04:17:32.603Z,99611.59
2023-04-11T04:22:37.196Z,99617.06
2023-04-11T04:27:44.329Z,99624.66
2023-04-11T04:32:48.875Z,99622.38
2023-04-11T04:37:51.849Z,99635.50
2023-04-11T04:43:09.098Z,99624.19
2023-04-11T04:48:18.612Z,99620.91
2023-04-11T04:53:22.643Z,99627.56
2023-04-11T04:58:34.301Z,99624.44
2023-04-11T05:03:40.016Z,99631.97
2023-04-11T05:08:48.658Z,99633.78
2023-04-11T05:13:54.090Z,99639.25
2023-04-11T05:18:57.692Z,99636.69
2023-04-11T05:24:00.917Z,99639.59
2023-04-11T05:29:12.798Z,99632.19
2023-04-11T05:34:15.670Z,99644.09
2023-04-11T05:39:19.549Z,99704.53
2023-04-11T05:44:24.040Z,99696.66
2023-04-11T05:49:26.949Z,99717.06
2023-04-11T05:54:33.618Z,99712.34
2023-04-11T05:59:37.879Z,99708.94
2023-04-11T06:04:41.244Z,99708.84
2023-04-11T06:09:44.325Z,99717.16
2023-04-11T06:14:48.587Z,99709.91
2023-04-11T06:19:51.437Z,99718.56
2023-04-11T06:24:54.275Z,99734.59
2023-04-11T06:29:58.515Z,99733.25
2023-04-11T06:35:01.552Z,99749.31
2023-04-11T06:40:05.748Z,99746.78
2023-04-11T06:45:12.027Z,99749.88
2023-04-11T06:50:14.964Z,99745.06
2023-04-11T06:55:18.098Z,99761.00
2023-04-11T07:00:22.755Z,99775.34
2023-04-11T07:05:26.193Z,99763.81
2023-04-11T07:10:29.126Z,99770.31
2023-04-11T07:15:33.300Z,99784.03
2023-04-11T07:20:36.391Z,99788.50
2023-04-11T07:25:39.292Z,99785.81
2023-04-11T07:30:43.723Z,99791.41
2023-04-11T07:35:46.509Z,99804.41
2023-04-11T07:40:49.457Z,99792.88
2023-04-11T07:45:54.206Z,99820.25
2023-04-11T07:50:57.084Z,99822.09
2023-04-11T07:55:59.942Z,99822.91
2023-04-11T08:01:05.454Z,99832.53
2023-04-11T08:06:09.121Z,99839.75
2023-04-11T08:11:11.900Z,99835.16
2023-04-11T08:16:16.422Z,99840.25
2023-04-11T08:21:19.245Z,99846.13
2023-04-11T08:26:22.055Z,99859.78
2023-04-11T08:31:26.897Z,99846.19
2023-04-11T08:36:29.727Z,99851.97
2023-04-11T08:41:34.477Z,99854.47
2023-04-11T08:46:42.664Z,99854.84
2023-04-11T08:51:46.110Z,99864.91
2023-04-11T08:56:48.968Z,99851.06
2023-04-11T09:01:53.841Z,99843.25
2023-04-11T09:07:01.162Z,99868.94
2023-04-11T09:12:05.077Z,99860.34
2023-04-11T09:17:13.422Z,99854.91
2023-04-11T09:22:16.340Z,99855.63
2023-04-11T09:27:24.326Z,99850.50
2023-04-11T09:32:30.263Z,99887.28
2023-04-11T09:37:43.813Z,99884.72
2023-04-11T09:42:47.865Z,99890.53
2023-04-11T09:47:53.999Z,99879.97
2023-04-11T09:52:59.317Z,99867.00
2023-04-11T09:58:02.933Z,99877.03
2023-04-11T10:03:07.275Z,99872.69
2023-04-11T10:08:18.218Z,99885.66
2023-04-11T10:13:43.253Z,99880.78
2023-04-11T10:19:20.087Z,99869.28
2023-04-11T10:24:26.573Z,99893.66
2023-04-11T10:29:52.491Z,99868.50
2023-04-11T10:35:29.511Z,99871.56
2023-04-11T10:40:33.703Z,99869.78
2023-04-11T10:45:39.894Z,99884.94
2023-04-11T10:50:44.537Z,99889.50
2023-04-11T10:55:50.699Z,99917.25
2023-04-11T11:01:31.278Z,99911.31
2023-04-11T11:06:47.208Z,99905.41
2023-04-11T11:12:11.945Z,99923.47
2023-04-11T11:17:16.058Z,99921.66
2023-04-11T11:22:25.556Z,99917.28
2023-04-11T11:27:30.009Z,99912.09
2023-04-11T11:32:32.954Z,99913.50
2023-04-11T11:37:36.268Z,99938.28
2023-04-11T11:42:40.943Z,99930.16
2023-04-11T11:47:44.338Z,99930.59
2023-04-11T11:52:48.760Z,99916.81
2023-04-11T11:57:52.969Z,99909.09
2023-04-11T12:02:59.324Z,99933.88
2023-04-11T12:08:04.305Z,99953.34
2023-04-11T12:13:16.154Z,99925.97
2023-04-11T12:18:24.710Z,99917.09
2023-04-11T12:23:27.547Z,99922.47
2023-04-11T12:28:31.760Z,99906.88
2023-04-11T12:33:34.824Z,99899.66
2023-04-11T12:45:18.758Z,99929.03
2023-04-11T12:50:23.264Z,99940.38
2023-04-11T12:55:26.086Z,99940.31
2023-04-11T13:00:30.298Z,99943.31
2023-04-11T13:05:33.033Z,99934.16
2023-04-11T13:10:35.761Z,99935.25
2023-04-11T13:15:39.794Z,99943.22
2023-04-11T13:20:42.589Z,99944.22
2023-04-11T13:25:45.316Z,99925.03
2023-04-11T13:30:49.405Z,99947.59
2023-04-11T13:35:52.144Z,99954.72
2023-04-11T13:40:55.622Z,99952.00
2023-04-11T13:45:59.776Z,99938.09
2023-04-11T13:51:02.517Z,99970.81
2023-04-11T13:56:05.777Z,99970.69
2023-04-11T14:01:10.374Z,99964.13
2023-04-11T14:06:13.330Z,99958.44
2023-04-11T14:11:16.137Z,99986.94
2023-04-11T14:16:20.523Z,99979.72
2023-04-11T14:21:23.700Z,99960.94
2023-04-11T14:26:26.651Z,99974.91
2023-04-11T14:31:32.250Z,99974.72
2023-04-11T14:36:35.634Z,99963.56
2023-04-11T14:41:38.872Z,100003.59
2023-04-11T14:46:43.370Z,99993.97
2023-04-11T14:51:46.410Z,99991.41
2023-04-11T14:56:49.215Z,99989.25
2023-04-11T15:01:53.481Z,99997.28
2023-04-11T15:06:56.552Z,99997.19
2023-04-11T15:11:59.370Z,99993.28
2023-04-11T15:17:03.528Z,99994.06
2023-04-11T15:22:06.368Z,100024.34
2023-04-11T15:27:09.198Z,100010.75
2023-04-11T15:32:13.341Z,100006.31
2023-04-11T15:37:16.151Z,100002.94
2023-04-11T15:42:19.063Z,100017.50
2023-04-11T15:47:23.301Z,100023.34
2023-04-11T15:52:26.339Z,100004.25
2023-04-11T15:57:29.185Z,99995.00
2023-04-11T16:02:33.679Z,100001.56
2023-04-11T16:07:36.675Z,99991.56
2023-04-11T16:12:39.738Z,99993.44
2023-04-11T16:17:46.313Z,99991.47
2023-04-11T16:22:49.259Z,100014.06
2023-04-11T16:27:52.143Z,100007.03
2023-04-11T16:32:56.549Z,100002.56
2023-04-11T16:37:59.413Z,100015.13
2023-04-11T16:43:02.218Z,100002.34
2023-04-11T16:48:07.007Z,99995.22
2023-04-11T16:53:09.930Z,99999.59
2023-04-11T16:58:12.773Z,100000.44
2023-04-11T17:03:18.149Z,100007.78
2023-04-11T17:08:21.237Z,99995.19
2023-04-11T17:13:24.044Z,99998.03
2023-04-11T17:18:28.442Z,100004.38
2023-04-11T17:23:41.961Z,99983.97
2023-04-11T17:28:46.943Z,99994.13
2023-04-11T17:33:51.122Z,99997.59
2023-04-11T17:38:54.748Z,100006.75
2023-04-11T17:43:57.701Z,99995.72
2023-04-11T17:49:02.032Z,100002.66
2023-04-11T17:54:05.151Z,99997.63
2023-04-11T17:59:07.880Z,100002.22
2023-04-11T18:04:13.552Z,100006.09
2023-04-11T18:09:17.216Z,100001.06
2023-04-11T18:14:20.189Z,100008.03
2023-04-11T18:19:24.365Z,100017.66
2023-04-11T18:24:27.803Z,100018.75
2023-04-11T18:29:30.548Z,100024.00
2023-04-11T18:34:34.478Z,100021.94
2023-04-11T18:39:38.159Z,100022.31
2023-04-11T18:44:42.784Z,100025.56
2023-04-11T18:49:47.547Z,100026.06
2023-04-11T18:54:50.482Z,100028.03
2023-04-11T18:59:55.677Z,100029.63
2023-04-11T19:05:01.149Z,100026.72
2023-04-11T19:10:04.145Z,100029.78
2023-04-11T19:15:08.950Z,100019.09
2023-04-11T19:20:13.696Z,100018.63
2023-04-11T19:25:16.988Z,100018.28
2023-04-11T19:30:19.899Z,100023.28
2023-04-11T19:35:24.276Z,100011.72
2023-04-11T19:40:27.137Z,100001.97
2023-04-11T19:45:31.712Z,100004.19
2023-04-11T19:50:36.848Z,100002.25
2023-04-11T19:55:39.999Z,99995.81
2023-04-11T20:00:42.788Z,99983.16
2023-04-11T20:05:47.026Z,99966.75
2023-04-11T20:10:49.993Z,99967.59
2023-04-11T20:22:53.721Z,99949.47
2023-04-11T20:27:56.527Z,99948.38
2023-04-11T20:32:59.318Z,99956.91
2023-04-11T20:38:03.456Z,99950.34
2023-04-11T20:43:06.671Z,99955.34
2023-04-11T20:48:12.841Z,99945.94
2023-04-11T20:53:16.974Z,99949.69
2023-04-11T20:58:21.007Z,99936.66
2023-04-11T21:03:24.036Z,99938.47
2023-04-11T21:08:28.371Z,99925.47
2023-04-11T21:13:31.186Z,99923.50
2023-04-11T21:18:33.958Z,99923.25
2023-04-11T21:23:38.197Z,99908.13
2023-04-11T21:28:40.981Z,99904.34
2023-04-11T21:33:46.451Z,99899.22
2023-04-11T21:38:50.668Z,99890.69
2023-04-11T21:43:53.443Z,99892.13
2023-04-11T21:48:56.206Z,99892.38
2023-04-11T21:54:00.328Z,99880.66
2023-04-11T21:59:03.194Z,99877.81
2023-04-11T22:04:06.270Z,99870.13
2023-04-11T22:09:10.584Z,99872.28
2023-04-11T22:14:16.173Z,99856.16
2023-04-11T22:19:19.730Z,99848.38
2023-04-11T22:24:31.060Z,99854.38
2023-04-11T22:29:34.439Z,99846.38
2023-04-11T22:34:37.227Z,99833.59
2023-04-11T22:39:41.461Z,99831.53
2023-04-11T22:44:44.193Z,99818.06
2023-04-11T22:49:46.961Z,99816.91
2023-04-11T22:54:51.054Z,99798.19
2023-04-11T22:59:53.838Z,99808.16
2023-04-11T23:04:56.633Z,99803.41
2023-04-11T23:10:04.281Z,99790.63
2023-04-11T23:15:08.137Z,99786.38
2023-04-11T23:20:13.645Z,99783.13
2023-04-11T23:25:18.151Z,99776.50
2023-04-11T23:30:20.906Z,99767.50
2023-04-11T23:35:23.756Z,99748.50
2023-04-11T23:40:29.554Z,99750.19
2023-04-11T23:45:34.109Z,99733.97
2023-04-11T23:50:36.911Z,99726.91
2023-04-11T23:55:41.558Z,99695.94
